AirNav   Everest Fuels
 
 1133 users online  

7WA7 Kautz Creek Helibase Heliport
Ashford, Washington, USA


FAA INFORMATION EFFECTIVE 19 MAY 2022

Location

FAA Identifier: 7WA7
Lat/Long: 46-43-47.1360N 121-51-24.2728W
46-43.785600N 121-51.404547W
46.7297600,-121.8567424
(estimated)
Elevation: 2312 ft. / 705 m (estimated)
From city: 7 miles ESE of ASHFORD, WA
Time zone: UTC -7 (UTC -8 during Standard Time)
Zip code: 98304

Heliport Operations

Heliport use: Private use. Permission required prior to landing
Activation date: 11/2020
Control tower: no
ARTCC: SEATTLE CENTER
FSS: SEATTLE FLIGHT SERVICE STATION
Attendance: 
Segmented circle: no

Heliport Services

Runway Information

Helipad H1

Dimensions: 30 x 30 ft. / 9 x 9 m
Surface: asphalt/concrete
Latitude: 46-43.785600N
Longitude: 121-51.404547W
Elevation: 2312.0 ft.
Traffic pattern: leftleft

Heliport Ownership and Management from official FAA records

Ownership: Privately-owned
Owner: MOUNT RAINIER NATIONAL PARK, DOI
55210 238TH AVE E
ASHFORD, WA 98304
Phone 360 569 6222
Manager: MOUNT RAINIER NATIONAL PARK, DOI
55210 238TH AVE E
ASHFORD, WA 98304
Phone 360 569 6222
GLENN_KESSLER@NPS.GOV

Heliport Operational Statistics

Aircraft based on the field: 1
Helicopters: 1
    

Instrument Procedures

There are no published instrument procedures at 7WA7.

Some nearby airports with instrument procedures:

KPLU - Pierce County Airport - Thun Field (29 nm NW)
KTCM - McChord Field Airport (Joint Base Lewis-McChord) (35 nm NW)
KGRF - Gray Army Airfield (Joint Base Lewis-McChord) (36 nm NW)
S50 - Auburn Municipal Airport (39 nm NW)
KTDO - Ed Carlson Memorial Field - South Lewis County Airport (42 nm W)
 
Loc | Ops | Rwys | IFR | FBO | Links
Com | Nav | Svcs | Stats | Notes
Aerial photo
No photo
 
Airport distance calculator
Flying to Kautz Creek Helibase Heliport? Find the distance to fly.

From to 7WA7

Sunrise and sunset
Times for 28-May-2022
 Local
(UTC-7)
 Zulu
(UTC)
Morning civil twilight04:4311:43
Sunrise05:2112:21
Sunset20:4803:48
Evening civil twilight21:2604:26

Current date and time
Zulu (UTC)  29-May-2022 00:16:16
Local (UTC-7)  28-May-2022 17:16:16
 
METAR
KPLU 
29nm NW 
282355Z AUTO 33004KT 7SM -DZ BKN050 BKN055 11/11 A2969 RMK AO2
KTCM 
34nm NW 
282358Z AUTO 02005KT 10SM -RA FEW013 BKN050 OVC060 12/12 A2969 RMK AO2 SLP058 P0002 60005 T01170117 10135 20117 56010 $
KGRF 
35nm NW 
282358Z 30007KT 9SM RA FEW012 OVC034 12/10 A2968 RMK AO2A SLP055 P0004 60007 T01160095 10132 20116 56008 $
KSMP 
40nm NE 
282356Z AUTO 00000KT 10SM OVC035 06/03 A2967 RMK AO2 SLP056 60001 T00560028 10078 20056 56015
KTIW 
44nm NW 
282353Z 36010KT 10SM -RA FEW008 OVC055 12/11 A2970 RMK AO2 SLP058 P0001 60007 T01170106 10128 20117 56012
KOLM 
45nm W 
282354Z 36010KT 7SM -RA BKN007 BKN015 OVC055 11/11 A2969 RMK AO2 SLP054 P0005 60020 T01110106 10122 20111 57010
KCLS 
46nm W 
282355Z AUTO 02007G14KT 10SM BKN014 BKN020 12/12 A2967 RMK AO2
KSEA 
47nm NW 
282353Z 33010KT 8SM -RA FEW020 BKN048 OVC055 11/09 A2970 RMK AO2 SLP062 P0002 60002 T01060089 10144 20106 56010
KRNT 
48nm N 
282353Z A2969 RMK AO2 RAE21 SLP060 P0000 60000 10150 20128 55008 $
TAF
KTCM 
34nm NW 
282100Z 2821/3003 02006KT 9000 -SHRA BKN023 610609 QNH2965INS BECMG 2901/2902 01009KT 8000 -RA SCT015 BKN022 OVC035 620609 QNH2966INS BECMG 2907/2908 25006KT 8000 -RA BKN011 OVC035 620509 QNH2975INS BECMG 2913/2914 23010G15KT 9000 -SHRA SCT024 BKN035 610509 QNH2986INS BECMG 2921/2922 24012G18KT 9999 NSW BKN040 620509 QNH2995INS TX15/2821Z TN08/2914Z
KGRF 
35nm NW 
282100Z 2821/3003 28007KT 9000 -RA BKN020 OVC050 650656 QNH2972INS BECMG 2908/2909 27008KT 6000 -RA OVC015 650509 QNH2978INS BECMG 2911/2912 24010KT 9000 -SHRA SCT015 OVC040 620505 QNH2983INS BECMG 2916/2917 24010G20KT 9999 VCSH SCT020 BKN040 620505 510002 QNH2990INS BECMG 2922/2923 24010G15KT 9999 NSW BKN050 620504 QNH2997INS TX14/2823Z TN08/2913Z
NOTAMs
Click for the latest NOTAMs
NOTAMs are issued by the DoD/FAA and will open in a separate window not controlled by AirNav.

 

 
 

Would you like to see your business listed on this page?

 If your business provides an interesting product or service to pilots, flight crews, aircraft, or users of the Kautz Creek Helibase Heliport, you should consider listing it here.  To start the listing process, click on the button below
 
Add a business
 

Other Pages about Kautz Creek Helibase Heliport

Update a link
 
Copyright © AirNav, LLC. All rights reserved. Privacy Policy  Contact